Time;durP1;ratioP1;P1;durP2;ratioP2;P2;SDS_P1;SDS_P2;PMS_P1;PMS_P2;Temp;Humidity;BMP_temperature;BMP_pressure;BME280_temperature;BME280_humidity;BME280_pressure;Samples;Min_cycle;Max_cycle;Signal;HPM_P1;HPM_P2
2023/12/12 00:05:09;;;;;;;4.30;2.50;;;;;;;4.95;100.00;97159.55;437106;1260;111896;-40
2023/12/12 00:25:23;;;;;;;3.40;1.10;;;;;;;5.09;100.00;97182.27;437201;1250;99274;-41
2023/12/12 00:35:29;;;;;;;6.70;2.10;;;;;;;5.16;100.00;97188.27;437253;1250;107957;-39
2023/12/12 01:05:48;;;;;;;2.80;1.50;;;;;;;5.29;100.00;97237.14;437299;1247;107574;-39
2023/12/12 01:15:55;;;;;;;2.50;1.60;;;;;;;5.32;100.00;97245.17;437231;1250;99214;-40
2023/12/12 01:26:02;;;;;;;2.00;1.20;;;;;;;5.33;100.00;97262.03;437322;1250;107232;-40
2023/12/12 01:36:11;;;;;;;5.00;3.20;;;;;;;5.37;100.00;97283.86;437421;1250;99403;-40
2023/12/12 01:46:19;;;;;;;2.40;0.90;;;;;;;5.37;100.00;97302.26;439219;1250;110657;-41
2023/12/12 01:56:28;;;;;;;4.00;1.30;;;;;;;5.37;100.00;97315.85;437698;1261;108491;-40
2023/12/12 02:16:41;;;;;;;6.60;1.70;;;;;;;5.35;100.00;97327.91;437403;1247;107586;-40
2023/12/12 02:26:47;;;;;;;5.90;1.30;;;;;;;5.33;100.00;97332.42;438365;1250;99307;-40
2023/12/12 02:36:54;;;;;;;1.60;1.00;;;;;;;5.35;100.00;97341.48;438024;1250;113088;-41
2023/12/12 02:47:01;;;;;;;2.20;1.10;;;;;;;5.35;100.00;97356.11;438027;1250;107908;-40
2023/12/12 02:57:08;;;;;;;2.10;1.10;;;;;;;5.36;100.00;97360.60;437801;1249;98806;-40
2023/12/12 03:07:16;;;;;;;2.50;1.30;;;;;;;5.35;100.00;97372.24;437795;1251;108354;-41
2023/12/12 03:27:28;;;;;;;1.50;1.40;;;;;;;5.30;100.00;97402.84;438073;1251;110541;-38
2023/12/12 03:37:35;;;;;;;4.80;2.20;;;;;;;5.26;100.00;97410.73;438028;1248;107441;-39
2023/12/12 03:47:42;;;;;;;2.70;2.40;;;;;;;5.21;100.00;97421.25;438594;1250;99202;-40
2023/12/12 04:07:54;;;;;;;4.80;3.00;;;;;;;5.07;100.00;97428.46;438108;1247;101579;-40
2023/12/12 04:18:02;;;;;;;3.40;2.10;;;;;;;5.02;100.00;97425.45;438030;1250;113381;-41
2023/12/12 04:28:09;;;;;;;6.20;2.00;;;;;;;5.01;100.00;97428.56;438063;1247;107443;-39
2023/12/12 04:38:16;;;;;;;5.10;2.20;;;;;;;5.00;100.00;97442.89;438116;1250;98807;-40
2023/12/12 04:48:24;;;;;;;9.40;5.30;;;;;;;4.99;100.00;97451.56;438317;1250;107200;-40
2023/12/12 04:58:31;;;;;;;6.20;2.00;;;;;;;4.99;100.00;97463.09;438015;1250;99259;-41
2023/12/12 05:08:39;;;;;;;5.20;2.10;;;;;;;5.00;100.00;97469.40;438116;1248;111217;-41
2023/12/12 05:18:47;;;;;;;23.90;8.00;;;;;;;4.99;100.00;97477.08;437932;1248;107553;-41
2023/12/12 06:09:18;;;;;;;3.50;2.40;;;;;;;4.92;100.00;97540.33;438084;1248;107775;-39
2023/12/12 06:29:30;;;;;;;2.70;2.30;;;;;;;4.95;100.00;97576.33;437992;1250;108803;-40
2023/12/12 06:39:35;;;;;;;2.60;1.80;;;;;;;4.93;100.00;97581.46;438153;1250;97975;-39
2023/12/12 06:49:43;;;;;;;2.00;1.90;;;;;;;4.83;100.00;97590.58;438492;1250;112744;-40
2023/12/12 07:09:59;;;;;;;3.80;2.90;;;;;;;4.86;100.00;97619.74;438033;1250;99215;-39
2023/12/12 07:20:11;;;;;;;13.10;5.50;;;;;;;4.90;100.00;97638.92;438004;1246;108418;-41
2023/12/12 07:30:19;;;;;;;23.50;9.00;;;;;;;4.89;100.00;97646.64;437905;1262;99320;-39
2023/12/12 07:40:25;;;;;;;7.20;3.80;;;;;;;4.86;100.00;97659.92;438015;1248;111227;-40
2023/12/12 08:00:39;;;;;;;8.80;4.50;;;;;;;4.88;100.00;97690.09;438378;1250;101401;-41
2023/12/12 08:10:46;;;;;;;6.00;3.40;;;;;;;4.89;100.00;97715.34;437851;1248;107244;-39
2023/12/12 08:20:53;;;;;;;5.70;3.20;;;;;;;4.86;100.00;97730.48;437788;1251;99457;-40
2023/12/12 08:41:06;;;;;;;8.90;3.90;;;;;;;4.80;100.00;97747.11;437936;1250;108346;-39
2023/12/12 08:51:17;;;;;;;5.40;3.20;;;;;;;4.80;100.00;97762.50;438110;1250;98794;-40
2023/12/12 09:01:24;;;;;;;5.90;2.90;;;;;;;4.75;100.00;97764.96;437810;1250;107126;-41
2023/12/12 09:21:39;;;;;;;5.20;4.30;;;;;;;4.82;100.00;97791.61;437901;1250;110235;-40
2023/12/12 09:31:47;;;;;;;7.40;4.90;;;;;;;4.78;100.00;97793.83;437748;1250;109334;-41
2023/12/12 09:51:59;;;;;;;46.30;16.90;;;;;;;4.94;100.00;97792.77;438031;1248;107372;-40
2023/12/12 10:02:07;;;;;;;30.70;13.40;;;;;;;5.06;100.00;97799.77;437892;1248;97994;-39
2023/12/12 10:12:24;;;;;;;61.90;22.30;;;;;;;5.14;100.00;97791.13;438002;1250;113145;-40
2023/12/12 10:22:34;;;;;;;45.00;18.20;;;;;;;5.21;100.00;97792.46;438048;1251;107865;-39
2023/12/12 10:32:43;;;;;;;65.00;26.20;;;;;;;5.19;100.00;97797.55;437978;1248;99320;-39
2023/12/12 10:42:51;;;;;;;18.30;10.10;;;;;;;5.21;100.00;97802.30;437968;1259;107714;-40
2023/12/12 10:52:57;;;;;;;28.70;15.30;;;;;;;5.24;100.00;97803.66;437995;1248;99510;-41
2023/12/12 11:03:04;;;;;;;20.00;11.40;;;;;;;5.29;100.00;97803.23;438116;1250;111526;-39
2023/12/12 11:13:13;;;;;;;16.90;11.20;;;;;;;5.45;100.00;97808.65;437814;1251;108357;-40
2023/12/12 11:23:55;;;;;;;19.70;12.20;;;;;;;5.45;100.00;97813.77;438024;1259;98813;-42
2023/12/12 11:44:08;;;;;;;22.60;14.30;;;;;;;5.44;100.00;97813.21;437807;1250;99279;-39
2023/12/12 11:54:18;;;;;;;16.80;11.60;;;;;;;5.47;100.00;97818.89;437984;1250;110813;-42
2023/12/12 12:04:24;;;;;;;22.10;13.30;;;;;;;5.48;100.00;97827.35;438009;1248;107201;-39
2023/12/12 12:14:31;;;;;;;12.00;8.20;;;;;;;5.51;100.00;97826.98;437931;1259;98009;-40
2023/12/12 12:24:41;;;;;;;17.40;10.20;;;;;;;5.53;100.00;97821.84;438013;1259;108612;-39
2023/12/12 12:34:47;;;;;;;28.20;13.10;;;;;;;5.52;100.00;97822.91;438035;1250;99227;-40
2023/12/12 12:44:55;;;;;;;16.30;9.40;;;;;;;5.46;100.00;97828.45;437787;1250;527656;-40
2023/12/12 12:55:01;;;;;;;20.40;13.80;;;;;;;5.37;100.00;97832.46;438014;1250;107977;-38
2023/12/12 13:15:16;;;;;;;21.90;12.30;;;;;;;5.34;100.00;97824.88;437914;1250;106687;-39
2023/12/12 13:25:22;;;;;;;37.60;18.70;;;;;;;5.39;100.00;97820.84;437794;1248;99018;-39
2023/12/12 13:35:29;;;;;;;35.90;17.90;;;;;;;5.44;100.00;97813.74;437936;1251;112147;-39
2023/12/12 13:45:44;;;;;;;26.10;15.20;;;;;;;5.37;100.00;97806.91;438092;1251;107219;-39
2023/12/12 14:05:58;;;;;;;19.90;15.10;;;;;;;5.30;100.00;97798.48;437895;1260;107579;-39
2023/12/12 14:16:05;;;;;;;29.00;17.30;;;;;;;5.34;100.00;97786.33;437970;1247;99260;-40
2023/12/12 14:26:16;;;;;;;34.20;23.30;;;;;;;5.17;100.00;97787.29;438064;1250;111251;-38
2023/12/12 14:36:23;;;;;;;57.20;31.20;;;;;;;4.84;100.00;97793.64;437901;1251;110293;-39
2023/12/12 14:46:30;;;;;;;57.30;35.60;;;;;;;4.69;100.00;97800.64;437935;1259;97922;-40
2023/12/12 14:56:37;;;;;;;64.70;35.70;;;;;;;4.66;100.00;97808.48;437907;1246;108313;-39
2023/12/12 15:06:44;;;;;;;51.70;33.20;;;;;;;4.63;100.00;97814.63;437890;1251;97980;-40
2023/12/12 15:16:52;;;;;;;68.90;39.70;;;;;;;4.58;100.00;97809.26;437954;1247;111739;-40
2023/12/12 15:37:05;;;;;;;101.00;55.80;;;;;;;4.19;100.00;97790.95;437972;1247;97988;-38
2023/12/12 15:57:16;;;;;;;66.30;43.20;;;;;;;3.89;100.00;97792.87;437876;1251;99215;-39
2023/12/12 16:17:28;;;;;;;59.80;38.10;;;;;;;4.08;100.00;97792.19;437825;1251;109703;-40
2023/12/12 16:27:35;;;;;;;63.40;41.60;;;;;;;4.19;100.00;97791.64;437888;1252;99286;-40
2023/12/12 16:37:42;;;;;;;79.50;46.40;;;;;;;4.16;100.00;97784.05;437793;1250;109439;-40
2023/12/12 16:47:48;;;;;;;100.50;55.10;;;;;;;4.03;100.00;97777.63;437848;1250;98086;-39
2023/12/12 17:18:09;;;;;;;102.60;59.20;;;;;;;3.97;100.00;97774.48;437949;1247;98583;-39
2023/12/12 17:28:22;;;;;;;78.60;48.10;;;;;;;3.99;100.00;97767.66;437939;1259;109385;-39
2023/12/12 17:38:29;;;;;;;87.50;45.80;;;;;;;4.04;100.00;97762.87;437862;1247;99198;-40
2023/12/12 17:48:34;;;;;;;74.10;45.60;;;;;;;4.13;100.00;97752.80;438057;1250;110504;-38
2023/12/12 17:58:40;;;;;;;86.20;48.30;;;;;;;4.05;100.00;97753.71;437964;1250;108350;-39
2023/12/12 18:08:47;;;;;;;60.80;36.60;;;;;;;3.96;100.00;97749.29;437753;1250;98797;-39
2023/12/12 18:29:00;;;;;;;65.50;45.00;;;;;;;3.92;100.00;97731.73;437789;1248;99250;-42
2023/12/12 18:49:14;;;;;;;85.80;51.30;;;;;;;3.87;100.00;97711.92;437722;1250;107548;-40
2023/12/12 18:59:21;;;;;;;72.50;46.10;;;;;;;3.86;100.00;97704.92;437924;1251;99225;-40
2023/12/12 19:19:35;;;;;;;96.10;58.10;;;;;;;3.89;100.00;97699.32;437899;1250;98935;-40
2023/12/12 19:29:47;;;;;;;112.90;62.00;;;;;;;3.90;100.00;97703.70;437840;1247;110801;-40
2023/12/12 19:39:53;;;;;;;96.60;54.70;;;;;;;3.90;100.00;97692.88;437929;1250;108785;-40
2023/12/12 19:50:01;;;;;;;86.60;52.00;;;;;;;3.87;100.00;97692.90;437776;1249;99120;-39
2023/12/12 20:00:11;;;;;;;86.30;52.90;;;;;;;3.81;100.00;97686.50;437930;1250;109621;-39
2023/12/12 20:10:19;;;;;;;93.30;53.60;;;;;;;3.72;100.00;97672.58;437952;1250;98046;-39
2023/12/12 20:20:25;;;;;;;77.10;47.40;;;;;;;3.59;100.00;97676.90;437793;1250;110767;-40
2023/12/12 20:30:34;;;;;;;125.30;68.00;;;;;;;3.43;100.00;97679.38;438053;1250;107260;-41
2023/12/12 20:40:39;;;;;;;;;;;;;;;3.22;100.00;97688.20;438070;1250;99202;-40
2023/12/12 20:50:48;;;;;;;100.80;60.50;;;;;;;3.09;100.00;97695.69;438059;1251;99125;-41
2023/12/12 21:00:55;;;;;;;87.00;52.30;;;;;;;3.16;100.00;97698.16;438103;1247;108736;-40
2023/12/12 21:21:09;;;;;;;71.90;42.80;;;;;;;3.36;100.00;97667.00;437906;1250;107693;-44
2023/12/12 21:31:16;;;;;;;70.20;39.90;;;;;;;3.38;100.00;97651.22;437918;1246;99224;-40
2023/12/12 21:41:23;;;;;;;63.70;38.70;;;;;;;3.37;100.00;97640.46;438061;1248;111306;-40
2023/12/12 21:51:30;;;;;;;74.00;40.60;;;;;;;3.33;100.00;97629.59;438006;1251;109196;-40
2023/12/12 22:11:42;;;;;;;96.20;50.10;;;;;;;3.24;100.00;97614.81;437974;1251;108411;-39
2023/12/12 22:21:49;;;;;;;78.90;45.30;;;;;;;3.19;100.00;97623.77;437902;1251;99322;-40
2023/12/12 22:31:56;;;;;;;90.90;48.30;;;;;;;3.15;100.00;97616.46;438011;1250;111208;-38
2023/12/12 22:42:02;;;;;;;86.40;45.00;;;;;;;3.09;100.00;97611.79;437897;1250;107112;-39
2023/12/12 22:52:10;;;;;;;88.90;46.60;;;;;;;3.06;100.00;97587.31;438020;1247;98480;-39
2023/12/12 23:12:23;;;;;;;83.20;43.70;;;;;;;2.79;100.00;97572.08;437934;1250;97927;-38
2023/12/12 23:22:30;;;;;;;88.90;44.10;;;;;;;2.59;100.00;97562.37;437717;1249;110928;-39
2023/12/12 23:32:37;;;;;;;89.50;45.30;;;;;;;2.43;100.00;97555.90;437976;1250;107453;-38
2023/12/12 23:42:43;;;;;;;87.30;45.90;;;;;;;2.32;100.00;97542.43;437951;1250;99218;-39
2023/12/12 23:52:50;;;;;;;81.30;42.40;;;;;;;2.21;100.00;97527.25;437788;1247;107239;-39
